Time;durP1;ratioP1;P1;durP2;ratioP2;P2;SDS_P1;SDS_P2;PMS_P1;PMS_P2;Temp;Humidity;BMP_temperature;BMP_pressure;BME280_temperature;BME280_humidity;BME280_pressure;Samples;Min_cycle;Max_cycle;Signal;HPM_P1;HPM_P2
2022/12/31 00:00:04;;;;;;;;;;;;;;;;;;5096617;28;19915;-69
2022/12/31 00:02:30;;;;;;;;;;;;;;;;;;5096913;28;19955;-69
2022/12/31 00:04:55;;;;;;;;;;;;;;;;;;5095624;28;19969;-69
2022/12/31 00:07:21;;;;;;;;;;;;;;;;;;5095345;28;19912;-69
2022/12/31 00:09:47;;;;;;;;;;;;;;;;;;5096882;28;19908;-68
2022/12/31 00:12:13;;;;;;;;;;;;;;;;;;5096868;28;20370;-70
2022/12/31 00:14:39;;;;;;;;;;;;;;;;;;5096397;28;20299;-69
2022/12/31 00:17:05;;;;;;;;;;;;;;;;;;5095344;28;19908;-68
2022/12/31 00:19:31;;;;;;;;;;;;;;;;;;5096718;28;19916;-68
2022/12/31 00:21:57;;;;;;;;;;;;;;;;;;5095173;28;19908;-69
2022/12/31 00:24:23;;;;;;;;;;;;;;;;;;5094856;28;19916;-70
2022/12/31 00:26:49;;;;;;;;;;;;;;;;;;5096526;28;19923;-68
2022/12/31 00:29:15;;;;;;;;;;;;;;;;;;5096109;28;19908;-69
2022/12/31 00:31:41;;;;;;;;;;;;;;;;;;5096417;28;20280;-69
2022/12/31 00:34:07;;;;;;;;;;;;;;;;;;5095186;28;20268;-68
2022/12/31 00:36:33;;;;;;;;;;;;;;;;;;5094649;28;19908;-69
2022/12/31 00:38:59;;;;;;;;;;;;;;;;;;5095035;28;19914;-68
2022/12/31 00:41:25;;;;;;;;;;;;;;;;;;5096271;28;19908;-70
2022/12/31 00:43:51;;;;;;;;;;;;;;;;;;5094556;28;19908;-70
2022/12/31 00:46:17;;;;;;;;;;;;;;;;;;5095524;28;19958;-69
2022/12/31 00:48:43;;;;;;;;;;;;;;;;;;5095150;28;19931;-68
2022/12/31 00:51:09;;;;;;;;;;;;;;;;;;5094170;28;19924;-71
2022/12/31 00:53:35;;;;;;;;;;;;;;;;;;5096013;28;19909;-69
2022/12/31 00:56:01;;;;;;;;;;;;;;;;;;5094304;28;19909;-69
2022/12/31 00:58:27;;;;;;;;;;;;;;;;;;5095987;28;20365;-69
2022/12/31 01:00:53;;;;;;;;;;;;;;;;;;5095879;28;19908;-69
2022/12/31 01:03:18;;;;;;;;;;;;;;;;;;5095368;28;20352;-68
2022/12/31 01:05:44;;;;;;;;;;;;;;;;;;5096014;28;20348;-68
2022/12/31 01:08:10;;;;;;;;;;;;;;;;;;5095739;28;19947;-68
2022/12/31 01:13:21;;;;;;;;;;;;;;;;;;5095657;28;19923;-68
2022/12/31 01:15:47;;;;;;;;;;;;;;;;;;5095595;28;19908;-69
2022/12/31 01:18:13;;;;;;;;;;;;;;;;;;5095144;28;19950;-69
2022/12/31 01:20:39;;;;;;;;;;;;;;;;;;5095498;28;19908;-68
2022/12/31 01:23:05;;;;;;;;;;;;;;;;;;5095467;28;19908;-69
2022/12/31 01:25:31;;;;;;;;;;;;;;;;;;5093576;28;19908;-69
2022/12/31 01:27:57;;;;;;;;;;;;;;;;;;5095343;28;20012;-68
2022/12/31 01:30:23;;;;;;;;;;;;;;;;;;5095284;28;19908;-70
2022/12/31 01:32:48;;;;;;;;;;;;;;;;;;5094782;28;19923;-70
2022/12/31 01:35:14;;;;;;;;;;;;;;;;;;5094528;28;19908;-67
2022/12/31 01:37:40;;;;;;;;;;;;;;;;;;5095212;28;19908;-68
2022/12/31 01:40:06;;;;;;;;;;;;;;;;;;5093762;28;19908;-68
2022/12/31 01:42:32;;;;;;;;;;;;;;;;;;5095033;28;19999;-69
2022/12/31 01:44:58;;;;;;;;;;;;;;;;;;5095006;28;19920;-69
2022/12/31 01:47:24;;;;;;;;;;;;;;;;;;5094618;28;19915;-69
2022/12/31 01:49:50;;;;;;;;;;;;;;;;;;5094926;28;19934;-69
2022/12/31 01:52:16;;;;;;;;;;;;;;;;;;5093015;28;19920;-69
2022/12/31 01:54:42;;;;;;;;;;;;;;;;;;5095148;28;19908;-68
2022/12/31 01:57:08;;;;;;;;;;;;;;;;;;5094766;28;20007;-66
2022/12/31 01:59:34;;;;;;;;;;;;;;;;;;5093123;28;19954;-68
2022/12/31 02:01:59;;;;;;;;;;;;;;;;;;5094738;28;19908;-69
2022/12/31 02:04:25;;;;;;;;;;;;;;;;;;5094694;28;19908;-68
2022/12/31 02:06:51;;;;;;;;;;;;;;;;;;5094435;28;19951;-68
2022/12/31 02:09:17;;;;;;;;;;;;;;;;;;5093280;28;19908;-69
2022/12/31 02:11:43;;;;;;;;;;;;;;;;;;5094734;28;19923;-68
2022/12/31 02:14:09;;;;;;;;;;;;;;;;;;5094553;28;19936;-69
2022/12/31 02:16:35;;;;;;;;;;;;;;;;;;5094550;28;19909;-69
2022/12/31 02:19:01;;;;;;;;;;;;;;;;;;5093178;28;19954;-68
2022/12/31 02:21:27;;;;;;;;;;;;;;;;;;5094192;28;19912;-69
2022/12/31 02:23:53;;;;;;;;;;;;;;;;;;5093095;28;19932;-68
2022/12/31 02:26:19;;;;;;;;;;;;;;;;;;5093030;28;20356;-68
2022/12/31 02:28:45;;;;;;;;;;;;;;;;;;5094011;28;20399;-69
2022/12/31 02:31:11;;;;;;;;;;;;;;;;;;5094248;28;20383;-69
2022/12/31 02:33:37;;;;;;;;;;;;;;;;;;5094239;28;19912;-68
2022/12/31 02:36:03;;;;;;;;;;;;;;;;;;5093928;28;19908;-69
2022/12/31 02:38:31;;;;;;;;;;;;;;;;;;5094158;28;19948;-68
2022/12/31 02:40:57;;;;;;;;;;;;;;;;;;5094155;28;19914;-68
2022/12/31 02:43:23;;;;;;;;;;;;;;;;;;5093679;28;19998;-69
2022/12/31 02:45:49;;;;;;;;;;;;;;;;;;5094079;28;19908;-68
2022/12/31 02:48:15;;;;;;;;;;;;;;;;;;5092513;28;19908;-68
2022/12/31 02:50:54;;;;;;;;;;;;;;;;;;5093428;28;19915;-67
2022/12/31 02:53:20;;;;;;;;;;;;;;;;;;5094011;28;20390;-67
2022/12/31 02:55:45;;;;;;;;;;;;;;;;;;5093478;28;19912;-68
2022/12/31 02:58:11;;;;;;;;;;;;;;;;;;5092684;28;19908;-68
2022/12/31 03:03:22;;;;;;;;;;;;;;;;;;5093464;28;20375;-68
2022/12/31 03:05:48;;;;;;;;;;;;;;;;;;5093979;28;19912;-68
2022/12/31 03:08:14;;;;;;;;;;;;;;;;;;5093845;28;19908;-68
2022/12/31 03:10:41;;;;;;;;;;;;;;;;;;5093367;28;20003;-68
2022/12/31 03:13:07;;;;;;;;;;;;;;;;;;5093713;28;19970;-68
2022/12/31 03:15:33;;;;;;;;;;;;;;;;;;5093699;28;19909;-68
2022/12/31 03:17:59;;;;;;;;;;;;;;;;;;5093279;28;20379;-69
2022/12/31 03:23:09;;;;;;;;;;;;;;;;;;5093726;28;19923;-69
2022/12/31 03:25:37;;;;;;;;;;;;;;;;;;5093278;28;19908;-69
2022/12/31 03:28:03;;;;;;;;;;;;;;;;;;5093620;28;19916;-68
2022/12/31 03:30:29;;;;;;;;;;;;;;;;;;5093640;28;19909;-68
2022/12/31 03:32:55;;;;;;;;;;;;;;;;;;5093095;28;19916;-68
2022/12/31 03:35:21;;;;;;;;;;;;;;;;;;5093848;28;20387;-68
2022/12/31 03:37:47;;;;;;;;;;;;;;;;;;5093162;28;19977;-67
2022/12/31 03:40:13;;;;;;;;;;;;;;;;;;5092261;28;19912;-68
2022/12/31 03:42:39;;;;;;;;;;;;;;;;;;5093491;28;20272;-67
2022/12/31 03:45:05;;;;;;;;;;;;;;;;;;5093229;28;20007;-67
2022/12/31 03:47:31;;;;;;;;;;;;;;;;;;5092228;28;19908;-67
2022/12/31 03:49:57;;;;;;;;;;;;;;;;;;5093447;28;19908;-67
2022/12/31 03:52:23;;;;;;;;;;;;;;;;;;5092858;28;19920;-67
2022/12/31 03:54:49;;;;;;;;;;;;;;;;;;5092085;28;19998;-68
2022/12/31 03:57:15;;;;;;;;;;;;;;;;;;5093425;28;19960;-67
2022/12/31 03:59:41;;;;;;;;;;;;;;;;;;5094937;28;19912;-68
2022/12/31 04:02:06;;;;;;;;;;;;;;;;;;5097009;28;19908;-68
2022/12/31 04:04:32;;;;;;;;;;;;;;;;;;5097294;28;20003;-68
2022/12/31 04:06:58;;;;;;;;;;;;;;;;;;5095185;28;19938;-68
2022/12/31 04:09:24;;;;;;;;;;;;;;;;;;5097046;28;20015;-67
2022/12/31 04:11:50;;;;;;;;;;;;;;;;;;5096741;28;19912;-67
2022/12/31 04:14:16;;;;;;;;;;;;;;;;;;5096551;28;19908;-68
2022/12/31 04:16:42;;;;;;;;;;;;;;;;;;5097061;28;20320;-67
2022/12/31 04:19:08;;;;;;;;;;;;;;;;;;5096705;28;20292;-68
2022/12/31 04:21:34;;;;;;;;;;;;;;;;;;5096257;28;19908;-67
2022/12/31 04:24:01;;;;;;;;;;;;;;;;;;5096951;28;19915;-67
2022/12/31 04:26:27;;;;;;;;;;;;;;;;;;5096808;28;19958;-68
2022/12/31 04:28:53;;;;;;;;;;;;;;;;;;5096146;28;19908;-67
2022/12/31 04:31:19;;;;;;;;;;;;;;;;;;5096373;28;19946;-68
2022/12/31 04:33:45;;;;;;;;;;;;;;;;;;5095127;28;19912;-68
2022/12/31 04:36:11;;;;;;;;;;;;;;;;;;5094690;28;19908;-67
2022/12/31 04:38:37;;;;;;;;;;;;;;;;;;5096329;28;19915;-67
2022/12/31 04:41:19;;;;;;;;;;;;;;;;;;5094663;28;20002;-68
2022/12/31 04:43:45;;;;;;;;;;;;;;;;;;5096265;28;19913;-68
2022/12/31 04:46:11;;;;;;;;;;;;;;;;;;5094878;28;20272;-68
2022/12/31 04:48:37;;;;;;;;;;;;;;;;;;5095916;28;19915;-68
2022/12/31 04:51:03;;;;;;;;;;;;;;;;;;5096191;28;20364;-68
2022/12/31 04:53:29;;;;;;;;;;;;;;;;;;5096030;28;20296;-68
2022/12/31 04:55:55;;;;;;;;;;;;;;;;;;5095665;28;20426;-68
2022/12/31 04:58:21;;;;;;;;;;;;;;;;;;5094721;28;20368;-68
2022/12/31 05:00:50;;;;;;;;;;;;;;;;;;5096033;28;20365;-68
2022/12/31 05:03:15;;;;;;;;;;;;;;;;;;5095464;28;19909;-68
2022/12/31 05:05:42;;;;;;;;;;;;;;;;;;5095839;28;19915;-68
2022/12/31 05:08:08;;;;;;;;;;;;;;;;;;5095939;28;19912;-68
2022/12/31 05:10:34;;;;;;;;;;;;;;;;;;5096293;28;19908;-68
2022/12/31 05:13:00;;;;;;;;;;;;;;;;;;5096152;28;19923;-71
2022/12/31 05:15:26;;;;;;;;;;;;;;;;;;5094986;28;19916;-68
2022/12/31 05:17:52;;;;;;;;;;;;;;;;;;5095405;28;20011;-68
2022/12/31 05:20:18;;;;;;;;;;;;;;;;;;5095761;28;19919;-68
2022/12/31 05:22:44;;;;;;;;;;;;;;;;;;5095753;28;19915;-68
2022/12/31 05:25:10;;;;;;;;;;;;;;;;;;5093770;28;19912;-67
2022/12/31 05:27:36;;;;;;;;;;;;;;;;;;5094088;28;19952;-68
2022/12/31 05:30:02;;;;;;;;;;;;;;;;;;5095317;28;19908;-68
2022/12/31 05:32:28;;;;;;;;;;;;;;;;;;5093518;28;20437;-67
2022/12/31 05:34:54;;;;;;;;;;;;;;;;;;5095857;28;19915;-67
2022/12/31 05:37:20;;;;;;;;;;;;;;;;;;5093501;28;19953;-68
2022/12/31 05:39:46;;;;;;;;;;;;;;;;;;5095161;28;19962;-68
2022/12/31 05:42:12;;;;;;;;;;;;;;;;;;5095117;28;19930;-69
2022/12/31 05:44:38;;;;;;;;;;;;;;;;;;5094702;28;19939;-68
2022/12/31 05:47:04;;;;;;;;;;;;;;;;;;5095059;28;19908;-68
2022/12/31 05:49:30;;;;;;;;;;;;;;;;;;5094959;28;20276;-69
2022/12/31 05:51:55;;;;;;;;;;;;;;;;;;5094273;28;20324;-69
2022/12/31 05:54:21;;;;;;;;;;;;;;;;;;5093541;28;20280;-68
2022/12/31 05:56:47;;;;;;;;;;;;;;;;;;5093609;28;20356;-69
2022/12/31 05:59:13;;;;;;;;;;;;;;;;;;5093204;28;20280;-68
2022/12/31 06:01:39;;;;;;;;;;;;;;;;;;5093479;28;20332;-68
2022/12/31 06:04:05;;;;;;;;;;;;;;;;;;5094705;28;19908;-68
2022/12/31 06:06:31;;;;;;;;;;;;;;;;;;5094270;28;20272;-68
2022/12/31 06:08:57;;;;;;;;;;;;;;;;;;5094632;28;20301;-67
2022/12/31 06:11:23;;;;;;;;;;;;;;;;;;5094516;28;19919;-68
2022/12/31 06:13:49;;;;;;;;;;;;;;;;;;5094178;28;19915;-68
2022/12/31 06:16:15;;;;;;;;;;;;;;;;;;5094543;28;20110;-68
2022/12/31 06:18:41;;;;;;;;;;;;;;;;;;5094564;28;19995;-68
2022/12/31 06:21:07;;;;;;;;;;;;;;;;;;5093869;28;20384;-68
2022/12/31 06:23:33;;;;;;;;;;;;;;;;;;5092814;28;19909;-68
2022/12/31 06:25:59;;;;;;;;;;;;;;;;;;5094343;28;20355;-68
2022/12/31 06:28:25;;;;;;;;;;;;;;;;;;5093917;28;20320;-68
2022/12/31 06:30:51;;;;;;;;;;;;;;;;;;5094226;28;19908;-68
2022/12/31 06:33:16;;;;;;;;;;;;;;;;;;5094141;28;19960;-68
2022/12/31 06:35:42;;;;;;;;;;;;;;;;;;5093801;28;19908;-68
2022/12/31 06:38:08;;;;;;;;;;;;;;;;;;5092926;28;20003;-68
2022/12/31 06:40:34;;;;;;;;;;;;;;;;;;5093776;28;19908;-68
2022/12/31 06:43:00;;;;;;;;;;;;;;;;;;5094072;28;19908;-68
2022/12/31 06:45:27;;;;;;;;;;;;;;;;;;5094106;28;19949;-68
2022/12/31 06:47:52;;;;;;;;;;;;;;;;;;5093692;28;19999;-68
2022/12/31 06:50:18;;;;;;;;;;;;;;;;;;5094669;28;20386;-69
2022/12/31 06:52:44;;;;;;;;;;;;;;;;;;5093774;28;19931;-69
2022/12/31 06:55:10;;;;;;;;;;;;;;;;;;5093579;28;19909;-69
2022/12/31 06:57:36;;;;;;;;;;;;;;;;;;5094069;28;19908;-70
2022/12/31 07:00:02;;;;;;;;;;;;;;;;;;5093901;28;19923;-67
2022/12/31 07:02:28;;;;;;;;;;;;;;;;;;5093517;28;20357;-68
2022/12/31 07:04:54;;;;;;;;;;;;;;;;;;5092640;28;19947;-67
2022/12/31 07:07:20;;;;;;;;;;;;;;;;;;5093809;28;20281;-68
2022/12/31 07:09:46;;;;;;;;;;;;;;;;;;5093471;28;20045;-68
2022/12/31 07:12:12;;;;;;;;;;;;;;;;;;5093744;28;20006;-68
2022/12/31 07:14:38;;;;;;;;;;;;;;;;;;5093735;28;19919;-68
2022/12/31 07:17:04;;;;;;;;;;;;;;;;;;5093447;28;19950;-70
2022/12/31 07:19:30;;;;;;;;;;;;;;;;;;5092486;28;19934;-68
2022/12/31 07:21:56;;;;;;;;;;;;;;;;;;5092441;28;19954;-68
2022/12/31 07:24:22;;;;;;;;;;;;;;;;;;5092103;28;19915;-68
2022/12/31 07:26:48;;;;;;;;;;;;;;;;;;5092359;28;19912;-68
2022/12/31 07:29:14;;;;;;;;;;;;;;;;;;5093997;28;19908;-68
2022/12/31 07:31:40;;;;;;;;;;;;;;;;;;5092998;28;19918;-68
2022/12/31 07:34:06;;;;;;;;;;;;;;;;;;5094570;28;19944;-68
2022/12/31 07:36:32;;;;;;;;;;;;;;;;;;5097688;28;19908;-68
2022/12/31 07:38:58;;;;;;;;;;;;;;;;;;5097141;28;19912;-68
2022/12/31 07:41:23;;;;;;;;;;;;;;;;;;5097435;28;20245;-68
2022/12/31 07:43:49;;;;;;;;;;;;;;;;;;5097038;28;20257;-68
2022/12/31 07:46:15;;;;;;;;;;;;;;;;;;5097538;28;20356;-68
2022/12/31 07:48:41;;;;;;;;;;;;;;;;;;5097334;28;19908;-68
2022/12/31 07:51:07;;;;;;;;;;;;;;;;;;5097060;28;19912;-68
2022/12/31 07:53:33;;;;;;;;;;;;;;;;;;5097193;28;19923;-68
2022/12/31 07:55:59;;;;;;;;;;;;;;;;;;5097552;28;20003;-69
2022/12/31 07:58:25;;;;;;;;;;;;;;;;;;5096763;28;19908;-69
2022/12/31 08:00:51;;;;;;;;;;;;;;;;;;5095730;28;20356;-69
2022/12/31 08:03:17;;;;;;;;;;;;;;;;;;5097109;28;19961;-68
2022/12/31 08:05:43;;;;;;;;;;;;;;;;;;5095206;28;19931;-69
2022/12/31 08:08:09;;;;;;;;;;;;;;;;;;5096928;28;19908;-69
2022/12/31 08:10:35;;;;;;;;;;;;;;;;;;5096910;28;19912;-69
2022/12/31 08:13:01;;;;;;;;;;;;;;;;;;5096353;28;19938;-69
2022/12/31 08:15:26;;;;;;;;;;;;;;;;;;5096824;28;20336;-69
2022/12/31 08:17:52;;;;;;;;;;;;;;;;;;5096736;28;19908;-69
2022/12/31 08:20:18;;;;;;;;;;;;;;;;;;5095301;28;19970;-68
2022/12/31 08:22:44;;;;;;;;;;;;;;;;;;5095447;28;19912;-67
2022/12/31 08:25:10;;;;;;;;;;;;;;;;;;5096629;28;19915;-67
2022/12/31 08:27:36;;;;;;;;;;;;;;;;;;5096189;28;19914;-67
2022/12/31 08:30:02;;;;;;;;;;;;;;;;;;5096484;28;19961;-70
2022/12/31 08:32:28;;;;;;;;;;;;;;;;;;5096602;28;19927;-69
2022/12/31 08:34:54;;;;;;;;;;;;;;;;;;5095988;28;20280;-69
2022/12/31 08:37:20;;;;;;;;;;;;;;;;;;5096309;28;20402;-68
2022/12/31 08:39:46;;;;;;;;;;;;;;;;;;5096267;28;19912;-68
2022/12/31 08:42:12;;;;;;;;;;;;;;;;;;5094512;28;19912;-68
2022/12/31 08:44:38;;;;;;;;;;;;;;;;;;5095881;28;20007;-68
2022/12/31 08:47:04;;;;;;;;;;;;;;;;;;5096130;28;19908;-69
2022/12/31 08:49:30;;;;;;;;;;;;;;;;;;5096117;28;19915;-69
2022/12/31 08:51:56;;;;;;;;;;;;;;;;;;5095831;28;19920;-69
2022/12/31 08:54:22;;;;;;;;;;;;;;;;;;5095904;28;19999;-69
2022/12/31 08:56:47;;;;;;;;;;;;;;;;;;5095979;28;19914;-69
2022/12/31 08:59:14;;;;;;;;;;;;;;;;;;5096004;28;20455;-68
2022/12/31 09:01:39;;;;;;;;;;;;;;;;;;5095385;28;19915;-68
2022/12/31 09:04:05;;;;;;;;;;;;;;;;;;5095885;28;20287;-69
2022/12/31 09:06:31;;;;;;;;;;;;;;;;;;5095862;28;20344;-68
2022/12/31 09:08:57;;;;;;;;;;;;;;;;;;5095419;28;19908;-67
2022/12/31 09:11:23;;;;;;;;;;;;;;;;;;5095731;28;19908;-68
2022/12/31 09:13:49;;;;;;;;;;;;;;;;;;5095712;28;19912;-68
2022/12/31 09:16:15;;;;;;;;;;;;;;;;;;5093925;28;19966;-68
2022/12/31 09:18:41;;;;;;;;;;;;;;;;;;5094239;28;19916;-68
2022/12/31 09:21:07;;;;;;;;;;;;;;;;;;5095782;28;19915;-68
2022/12/31 09:23:33;;;;;;;;;;;;;;;;;;5093953;28;19907;-68
2022/12/31 09:25:59;;;;;;;;;;;;;;;;;;5095484;28;19954;-69
2022/12/31 09:28:25;;;;;;;;;;;;;;;;;;5094123;28;19999;-69
2022/12/31 09:30:51;;;;;;;;;;;;;;;;;;5094963;28;20017;-68
2022/12/31 09:33:17;;;;;;;;;;;;;;;;;;5093997;28;20287;-68
2022/12/31 09:35:44;;;;;;;;;;;;;;;;;;5095322;28;20002;-68
2022/12/31 09:38:10;;;;;;;;;;;;;;;;;;5094852;28;19952;-68
2022/12/31 09:40:35;;;;;;;;;;;;;;;;;;5095096;28;19912;-68
2022/12/31 09:43:01;;;;;;;;;;;;;;;;;;5094956;28;20283;-69
2022/12/31 09:45:27;;;;;;;;;;;;;;;;;;5093295;28;20365;-69
2022/12/31 09:47:53;;;;;;;;;;;;;;;;;;5093666;28;20360;-69
2022/12/31 09:50:19;;;;;;;;;;;;;;;;;;5093754;28;19911;-69
2022/12/31 09:52:45;;;;;;;;;;;;;;;;;;5094263;28;19920;-68
2022/12/31 09:55:11;;;;;;;;;;;;;;;;;;5094853;28;19908;-67
2022/12/31 09:57:38;;;;;;;;;;;;;;;;;;5093950;28;19966;-68
2022/12/31 10:00:04;;;;;;;;;;;;;;;;;;5095040;28;19961;-68
2022/12/31 10:02:29;;;;;;;;;;;;;;;;;;5094793;28;19912;-71
2022/12/31 10:04:55;;;;;;;;;;;;;;;;;;5092953;28;19998;-68
2022/12/31 10:07:21;;;;;;;;;;;;;;;;;;5094629;28;19915;-68
2022/12/31 10:09:47;;;;;;;;;;;;;;;;;;5094786;28;19908;-68
2022/12/31 10:12:13;;;;;;;;;;;;;;;;;;5094079;28;20383;-69
2022/12/31 10:14:39;;;;;;;;;;;;;;;;;;5093243;28;19915;-69
2022/12/31 10:17:05;;;;;;;;;;;;;;;;;;5094515;28;19915;-69
2022/12/31 10:19:31;;;;;;;;;;;;;;;;;;5094249;28;19919;-69
2022/12/31 10:21:57;;;;;;;;;;;;;;;;;;5093200;28;19908;-70
2022/12/31 10:24:23;;;;;;;;;;;;;;;;;;5094430;28;19948;-69
2022/12/31 10:26:49;;;;;;;;;;;;;;;;;;5093924;28;20306;-69
2022/12/31 10:29:15;;;;;;;;;;;;;;;;;;5094302;28;19908;-68
2022/12/31 10:31:41;;;;;;;;;;;;;;;;;;5094172;28;19916;-68
2022/12/31 10:34:07;;;;;;;;;;;;;;;;;;5093904;28;19973;-68
2022/12/31 10:36:33;;;;;;;;;;;;;;;;;;5092767;28;19954;-67
2022/12/31 10:38:58;;;;;;;;;;;;;;;;;;5094170;28;19908;-68
2022/12/31 10:41:24;;;;;;;;;;;;;;;;;;5092426;28;19912;-69
2022/12/31 10:43:50;;;;;;;;;;;;;;;;;;5092828;28;19908;-68
2022/12/31 10:46:16;;;;;;;;;;;;;;;;;;5094192;28;19915;-68
2022/12/31 10:48:42;;;;;;;;;;;;;;;;;;5092337;28;19957;-68
2022/12/31 10:51:08;;;;;;;;;;;;;;;;;;5092593;28;19969;-68
2022/12/31 10:53:34;;;;;;;;;;;;;;;;;;5093979;28;19967;-68
2022/12/31 10:56:00;;;;;;;;;;;;;;;;;;5092334;28;20034;-68
2022/12/31 10:58:26;;;;;;;;;;;;;;;;;;5093797;28;19908;-68
2022/12/31 11:00:52;;;;;;;;;;;;;;;;;;5093426;28;19958;-68
2022/12/31 11:03:18;;;;;;;;;;;;;;;;;;5093813;28;20272;-68
2022/12/31 11:05:44;;;;;;;;;;;;;;;;;;5093872;28;19916;-68
2022/12/31 11:08:10;;;;;;;;;;;;;;;;;;5093534;28;19915;-69
2022/12/31 11:10:36;;;;;;;;;;;;;;;;;;5097972;28;19947;-69
2022/12/31 11:13:02;;;;;;;;;;;;;;;;;;5097804;28;19920;-68
2022/12/31 11:15:28;;;;;;;;;;;;;;;;;;5097509;28;19916;-70
2022/12/31 11:17:53;;;;;;;;;;;;;;;;;;5096690;28;19908;-69
2022/12/31 11:20:22;;;;;;;;;;;;;;;;;;5096649;28;20352;-69
2022/12/31 11:22:48;;;;;;;;;;;;;;;;;;5096130;28;20445;-69
2022/12/31 11:25:14;;;;;;;;;;;;;;;;;;5097753;28;19908;-69
2022/12/31 11:27:40;;;;;;;;;;;;;;;;;;5097987;28;19912;-69
2022/12/31 11:30:06;;;;;;;;;;;;;;;;;;5097303;28;19912;-69
2022/12/31 11:32:31;;;;;;;;;;;;;;;;;;5097586;28;19916;-68
2022/12/31 11:34:57;;;;;;;;;;;;;;;;;;5097587;28;20380;-68
2022/12/31 11:37:23;;;;;;;;;;;;;;;;;;5095866;28;20383;-68
2022/12/31 11:39:49;;;;;;;;;;;;;;;;;;5097313;28;20272;-68
2022/12/31 11:42:15;;;;;;;;;;;;;;;;;;5097376;28;20396;-68
2022/12/31 11:44:41;;;;;;;;;;;;;;;;;;5096990;28;19908;-68
2022/12/31 11:47:07;;;;;;;;;;;;;;;;;;5096074;28;19955;-69
2022/12/31 11:49:33;;;;;;;;;;;;;;;;;;5097602;28;19908;-68
2022/12/31 11:51:59;;;;;;;;;;;;;;;;;;5096652;28;19956;-68
2022/12/31 11:54:25;;;;;;;;;;;;;;;;;;5097187;28;19930;-68
2022/12/31 11:56:51;;;;;;;;;;;;;;;;;;5097407;28;19954;-69
2022/12/31 11:59:17;;;;;;;;;;;;;;;;;;5096639;28;19917;-67
2022/12/31 12:01:43;;;;;;;;;;;;;;;;;;5097003;28;19953;-67
2022/12/31 12:04:09;;;;;;;;;;;;;;;;;;5096646;28;19915;-67
2022/12/31 12:06:34;;;;;;;;;;;;;;;;;;5096994;28;19908;-67
2022/12/31 12:09:00;;;;;;;;;;;;;;;;;;5096900;28;19908;-67
2022/12/31 12:11:26;;;;;;;;;;;;;;;;;;5096366;28;19987;-67
2022/12/31 12:13:52;;;;;;;;;;;;;;;;;;5096855;28;19953;-68
2022/12/31 12:16:18;;;;;;;;;;;;;;;;;;5096719;28;19919;-68
2022/12/31 12:18:44;;;;;;;;;;;;;;;;;;5094988;28;19912;-67
2022/12/31 12:21:10;;;;;;;;;;;;;;;;;;5095610;28;19943;-67
2022/12/31 12:23:36;;;;;;;;;;;;;;;;;;5095357;28;19953;-68
2022/12/31 12:26:02;;;;;;;;;;;;;;;;;;5096186;28;19908;-69
2022/12/31 12:28:28;;;;;;;;;;;;;;;;;;5096353;28;19985;-69
2022/12/31 12:30:54;;;;;;;;;;;;;;;;;;5095280;28;19908;-68
2022/12/31 12:33:20;;;;;;;;;;;;;;;;;;5094726;28;19916;-68
2022/12/31 12:35:46;;;;;;;;;;;;;;;;;;5096480;28;19912;-67
2022/12/31 12:38:12;;;;;;;;;;;;;;;;;;5095118;28;19934;-68
2022/12/31 12:40:38;;;;;;;;;;;;;;;;;;5096115;28;20400;-69
2022/12/31 12:43:04;;;;;;;;;;;;;;;;;;5096337;28;19915;-68
2022/12/31 12:45:30;;;;;;;;;;;;;;;;;;5096449;28;19908;-68
2022/12/31 12:47:55;;;;;;;;;;;;;;;;;;5095854;28;19923;-68
2022/12/31 12:50:21;;;;;;;;;;;;;;;;;;5096177;28;20311;-68
2022/12/31 12:52:47;;;;;;;;;;;;;;;;;;5095935;28;20012;-68
2022/12/31 12:55:13;;;;;;;;;;;;;;;;;;5094617;28;20309;-68
2022/12/31 12:57:39;;;;;;;;;;;;;;;;;;5094648;28;19909;-67
2022/12/31 13:00:06;;;;;;;;;;;;;;;;;;5096293;28;19908;-68
2022/12/31 13:02:32;;;;;;;;;;;;;;;;;;5095493;28;19953;-68
2022/12/31 13:04:58;;;;;;;;;;;;;;;;;;5094636;28;20322;-68
2022/12/31 13:07:24;;;;;;;;;;;;;;;;;;5094201;28;20356;-68
2022/12/31 13:09:50;;;;;;;;;;;;;;;;;;5094543;28;19939;-68
2022/12/31 13:12:16;;;;;;;;;;;;;;;;;;5095643;28;19969;-68
2022/12/31 13:14:42;;;;;;;;;;;;;;;;;;5095314;28;19916;-68
2022/12/31 13:17:08;;;;;;;;;;;;;;;;;;5095568;28;19920;-68
2022/12/31 13:19:34;;;;;;;;;;;;;;;;;;5094338;28;19933;-69
2022/12/31 13:22:00;;;;;;;;;;;;;;;;;;5095228;28;19908;-69
2022/12/31 13:24:26;;;;;;;;;;;;;;;;;;5094288;28;19994;-69
2022/12/31 13:26:52;;;;;;;;;;;;;;;;;;5095464;28;20253;-68
2022/12/31 13:29:18;;;;;;;;;;;;;;;;;;5093598;28;20372;-69
2022/12/31 13:31:44;;;;;;;;;;;;;;;;;;5092951;28;20387;-70
2022/12/31 13:34:10;;;;;;;;;;;;;;;;;;5095523;28;19912;-68
2022/12/31 13:36:36;;;;;;;;;;;;;;;;;;5094916;28;19951;-67
2022/12/31 13:39:02;;;;;;;;;;;;;;;;;;5093899;28;19908;-68
2022/12/31 13:41:28;;;;;;;;;;;;;;;;;;5095203;28;19912;-67
2022/12/31 13:43:53;;;;;;;;;;;;;;;;;;5094750;28;20010;-68
2022/12/31 13:46:19;;;;;;;;;;;;;;;;;;5095062;28;19908;-68
2022/12/31 13:48:45;;;;;;;;;;;;;;;;;;5094958;28;19908;-68
2022/12/31 13:51:11;;;;;;;;;;;;;;;;;;5094340;28;19920;-69
2022/12/31 13:53:37;;;;;;;;;;;;;;;;;;5093584;28;19920;-69
2022/12/31 13:56:03;;;;;;;;;;;;;;;;;;5094866;28;19928;-69
2022/12/31 13:58:30;;;;;;;;;;;;;;;;;;5094451;28;19908;-69
2022/12/31 14:00:56;;;;;;;;;;;;;;;;;;5094709;28;19908;-71
2022/12/31 14:03:22;;;;;;;;;;;;;;;;;;5095365;28;20459;-69
2022/12/31 14:05:48;;;;;;;;;;;;;;;;;;5094302;28;20406;-69
2022/12/31 14:08:14;;;;;;;;;;;;;;;;;;5094664;28;19915;-68
2022/12/31 14:10:40;;;;;;;;;;;;;;;;;;5094348;28;19974;-68
2022/12/31 14:13:06;;;;;;;;;;;;;;;;;;5094484;28;19918;-68
2022/12/31 14:15:32;;;;;;;;;;;;;;;;;;5093459;28;20387;-68
2022/12/31 14:17:58;;;;;;;;;;;;;;;;;;5094347;28;19982;-69
2022/12/31 14:20:24;;;;;;;;;;;;;;;;;;5094457;28;20277;-69
2022/12/31 14:22:50;;;;;;;;;;;;;;;;;;5094472;28;20318;-69
2022/12/31 14:25:16;;;;;;;;;;;;;;;;;;5092634;28;20310;-67
2022/12/31 14:27:42;;;;;;;;;;;;;;;;;;5094334;28;20253;-68
2022/12/31 14:30:08;;;;;;;;;;;;;;;;;;5094381;28;20376;-68
2022/12/31 14:32:34;;;;;;;;;;;;;;;;;;5093922;28;20411;-68
2022/12/31 14:34:59;;;;;;;;;;;;;;;;;;5094249;28;20300;-68
2022/12/31 14:37:25;;;;;;;;;;;;;;;;;;5094460;28;20361;-68
2022/12/31 14:39:51;;;;;;;;;;;;;;;;;;5093981;28;19908;-68
2022/12/31 14:42:17;;;;;;;;;;;;;;;;;;5094010;28;20343;-68
2022/12/31 14:44:43;;;;;;;;;;;;;;;;;;5094050;28;20360;-68
2022/12/31 14:47:09;;;;;;;;;;;;;;;;;;5093602;28;20356;-68
2022/12/31 14:49:35;;;;;;;;;;;;;;;;;;5094248;28;19908;-68
2022/12/31 14:52:01;;;;;;;;;;;;;;;;;;5092678;28;20284;-69
2022/12/31 14:54:29;;;;;;;;;;;;;;;;;;5091669;28;21292;-68
2022/12/31 14:56:55;;;;;;;;;;;;;;;;;;5093944;28;19959;-70
2022/12/31 14:59:21;;;;;;;;;;;;;;;;;;5093958;28;19909;-68
2022/12/31 15:01:47;;;;;;;;;;;;;;;;;;5093508;28;19924;-68
2022/12/31 15:04:13;;;;;;;;;;;;;;;;;;5093951;28;19943;-68
2022/12/31 15:06:39;;;;;;;;;;;;;;;;;;5093905;28;19915;-68
2022/12/31 15:09:04;;;;;;;;;;;;;;;;;;5092077;28;19912;-68
2022/12/31 15:11:30;;;;;;;;;;;;;;;;;;5093758;28;19999;-67
2022/12/31 15:13:56;;;;;;;;;;;;;;;;;;5093392;28;19912;-69
2022/12/31 15:16:22;;;;;;;;;;;;;;;;;;5092588;28;20382;-69
2022/12/31 15:18:48;;;;;;;;;;;;;;;;;;5093813;28;20287;-67
2022/12/31 15:21:14;;;;;;;;;;;;;;;;;;5093412;28;20272;-69
2022/12/31 15:23:43;;;;;;;;;;;;;;;;;;5093749;28;20279;-68
2022/12/31 15:26:09;;;;;;;;;;;;;;;;;;5093904;28;19916;-68
2022/12/31 15:28:35;;;;;;;;;;;;;;;;;;5093325;28;19909;-70
2022/12/31 15:31:02;;;;;;;;;;;;;;;;;;5093717;28;19947;-69
2022/12/31 15:33:28;;;;;;;;;;;;;;;;;;5093777;28;20383;-67
2022/12/31 15:35:54;;;;;;;;;;;;;;;;;;5093187;28;19912;-69
2022/12/31 15:38:20;;;;;;;;;;;;;;;;;;5093604;28;19914;-69
2022/12/31 15:40:45;;;;;;;;;;;;;;;;;;5093587;28;19974;-69
2022/12/31 15:43:11;;;;;;;;;;;;;;;;;;5093251;28;19908;-68
2022/12/31 15:45:37;;;;;;;;;;;;;;;;;;5093552;28;20040;-68
2022/12/31 15:48:03;;;;;;;;;;;;;;;;;;5093448;28;20003;-68
2022/12/31 15:50:29;;;;;;;;;;;;;;;;;;5093121;28;19935;-68
2022/12/31 15:52:55;;;;;;;;;;;;;;;;;;5093258;28;19987;-70
2022/12/31 15:55:21;;;;;;;;;;;;;;;;;;5095002;28;19947;-70
2022/12/31 15:57:47;;;;;;;;;;;;;;;;;;5096973;28;19916;-68
2022/12/31 16:00:13;;;;;;;;;;;;;;;;;;5097301;28;20369;-70
2022/12/31 16:02:41;;;;;;;;;;;;;;;;;;5096054;28;19912;-70
2022/12/31 16:05:07;;;;;;;;;;;;;;;;;;5096804;28;19943;-69
2022/12/31 16:07:34;;;;;;;;;;;;;;;;;;5097296;28;19915;-69
2022/12/31 16:10:00;;;;;;;;;;;;;;;;;;5096894;28;19991;-68
2022/12/31 16:12:26;;;;;;;;;;;;;;;;;;5096583;28;19963;-70
2022/12/31 16:14:52;;;;;;;;;;;;;;;;;;5095735;28;19908;-68
2022/12/31 16:17:18;;;;;;;;;;;;;;;;;;5095189;28;19912;-68
2022/12/31 16:19:44;;;;;;;;;;;;;;;;;;5096663;28;19912;-68
2022/12/31 16:22:10;;;;;;;;;;;;;;;;;;5095504;28;20319;-68
2022/12/31 16:24:36;;;;;;;;;;;;;;;;;;5095007;28;19912;-68
2022/12/31 16:27:02;;;;;;;;;;;;;;;;;;5095385;28;19915;-68
2022/12/31 16:29:29;;;;;;;;;;;;;;;;;;5096572;28;20422;-68
2022/12/31 16:31:55;;;;;;;;;;;;;;;;;;5096014;28;19969;-69
2022/12/31 16:34:21;;;;;;;;;;;;;;;;;;5096510;28;19995;-68
2022/12/31 16:36:47;;;;;;;;;;;;;;;;;;5096437;28;19915;-68
2022/12/31 16:39:13;;;;;;;;;;;;;;;;;;5094754;28;20257;-68
2022/12/31 16:41:39;;;;;;;;;;;;;;;;;;5096558;28;20357;-68
2022/12/31 16:44:05;;;;;;;;;;;;;;;;;;5096344;28;20380;-68